Time;durP1;ratioP1;P1;durP2;ratioP2;P2;SDS_P1;SDS_P2;PMS_P1;PMS_P2;Temp;Humidity;BMP_temperature;BMP_pressure;BME280_temperature;BME280_humidity;BME280_pressure;Samples;Min_cycle;Max_cycle;Signal;HPM_P1;HPM_P2
2023/11/14 00:02:07;;;;;;;32.08;5.95;;;12.40;99.90;;;;;;5056317;28;20271;-44
2023/11/14 00:04:33;;;;;;;44.00;5.88;;;12.50;99.90;;;;;;5048016;28;20282;-42
2023/11/14 00:07:02;;;;;;;33.83;5.57;;;12.40;99.90;;;;;;5056767;28;20893;-45
2023/11/14 00:09:29;;;;;;;34.72;5.50;;;12.50;99.90;;;;;;5053768;28;20191;-46
2023/11/14 00:11:55;;;;;;;28.50;5.68;;;12.50;99.90;;;;;;5053224;28;20784;-44
2023/11/14 00:14:21;;;;;;;30.17;5.43;;;12.40;99.90;;;;;;5067007;28;20675;-47
2023/11/14 00:16:47;;;;;;;36.90;6.05;;;12.50;99.90;;;;;;5055243;28;20203;-47
2023/11/14 00:19:13;;;;;;;35.00;6.40;;;12.40;99.90;;;;;;5052309;28;20200;-43
2023/11/14 00:21:39;;;;;;;25.60;4.88;;;12.40;99.90;;;;;;5052406;28;20739;-47
2023/11/14 00:24:07;;;;;;;34.75;6.20;;;12.40;99.90;;;;;;5053446;28;20532;-45
2023/11/14 00:26:33;;;;;;;37.92;5.97;;;12.40;99.90;;;;;;5051393;28;20312;-43
2023/11/14 00:28:59;;;;;;;39.42;6.03;;;12.40;99.90;;;;;;5034171;28;20187;-43
2023/11/14 00:31:25;;;;;;;35.67;5.35;;;12.40;99.90;;;;;;5051542;28;20566;-42
2023/11/14 00:33:50;;;;;;;32.83;4.78;;;12.40;99.90;;;;;;5055415;28;20174;-43
2023/11/14 00:36:16;;;;;;;35.13;6.20;;;12.40;99.90;;;;;;5066694;28;20195;-45
2023/11/14 00:38:42;;;;;;;30.70;5.25;;;12.40;99.90;;;;;;5052365;28;20206;-47
2023/11/14 00:41:09;;;;;;;33.47;5.63;;;12.40;99.90;;;;;;5050505;28;20200;-41
2023/11/14 00:43:35;;;;;;;29.98;5.32;;;12.40;99.90;;;;;;5052286;28;20187;-46
2023/11/14 00:46:01;;;;;;;31.75;5.00;;;12.40;99.90;;;;;;5053430;28;20245;-47
2023/11/14 00:48:27;;;;;;;30.48;5.70;;;12.40;99.90;;;;;;5064661;28;20233;-42
2023/11/14 00:50:53;;;;;;;28.67;5.32;;;12.40;99.90;;;;;;5051455;28;20225;-47
2023/11/14 00:53:21;;;;;;;33.85;5.10;;;12.40;99.90;;;;;;5054604;28;20253;-41
2023/11/14 00:55:47;;;;;;;29.27;5.53;;;12.50;99.90;;;;;;5031822;28;20253;-46
2023/11/14 00:58:13;;;;;;;29.02;4.65;;;12.50;99.90;;;;;;5049823;28;20194;-46
2023/11/14 01:00:39;;;;;;;31.05;4.80;;;12.50;99.90;;;;;;5051564;28;20183;-44
2023/11/14 01:03:04;;;;;;;26.38;5.00;;;12.40;99.90;;;;;;5035051;28;20222;-43
2023/11/14 01:05:30;;;;;;;31.98;5.45;;;12.30;99.90;;;;;;5053340;28;20790;-48
2023/11/14 01:07:56;;;;;;;39.28;5.60;;;12.20;99.90;;;;;;5065360;28;20187;-40
2023/11/14 01:10:22;;;;;;;29.27;5.75;;;12.20;99.90;;;;;;5052217;28;20199;-45
2023/11/14 01:12:48;;;;;;;25.98;4.05;;;12.20;99.90;;;;;;5068911;28;20228;-47
2023/11/14 01:15:14;;;;;;;38.40;5.07;;;12.20;99.90;;;;;;5065544;28;21011;-41
2023/11/14 01:17:40;;;;;;;32.22;6.07;;;12.30;99.90;;;;;;5066897;28;20198;-45
2023/11/14 01:20:06;;;;;;;24.38;4.55;;;12.30;99.90;;;;;;5069585;28;20495;-44
2023/11/14 01:22:32;;;;;;;38.10;5.07;;;12.30;99.90;;;;;;5050347;28;20179;-44
2023/11/14 01:24:58;;;;;;;34.78;4.95;;;12.30;99.90;;;;;;5052537;28;20187;-43
2023/11/14 01:27:24;;;;;;;28.88;4.82;;;12.30;99.90;;;;;;5054352;28;20642;-42
2023/11/14 01:29:51;;;;;;;28.70;4.80;;;12.40;99.90;;;;;;5049975;28;20187;-43
2023/11/14 01:32:17;;;;;;;38.10;5.95;;;12.40;99.90;;;;;;5066178;28;20190;-43
2023/11/14 01:34:43;;;;;;;29.02;5.15;;;12.40;99.90;;;;;;5048038;28;20186;-42
2023/11/14 01:37:09;;;;;;;26.20;4.80;;;12.40;99.90;;;;;;5049551;28;20179;-42
2023/11/14 01:39:35;;;;;;;27.05;5.10;;;12.30;99.90;;;;;;5050466;28;20195;-44
2023/11/14 01:42:01;;;;;;;35.75;5.07;;;12.30;99.90;;;;;;5052607;28;20599;-45
2023/11/14 01:44:30;;;;;;;30.25;4.72;;;12.30;99.90;;;;;;5064765;28;20202;-44
2023/11/14 01:46:56;;;;;;;32.70;5.30;;;12.30;99.90;;;;;;5049855;28;20221;-47
2023/11/14 01:49:23;;;;;;;27.52;4.95;;;12.30;99.90;;;;;;5050278;28;20199;-43
2023/11/14 01:51:49;;;;;;;30.77;5.20;;;12.30;99.90;;;;;;5066760;28;20651;-44
2023/11/14 01:54:16;;;;;;;32.85;5.07;;;12.30;99.90;;;;;;5049278;28;20202;-42
2023/11/14 01:56:43;;;;;;;36.38;5.75;;;12.20;99.90;;;;;;5047703;28;20549;-44
2023/11/14 01:59:09;;;;;;;27.33;5.10;;;12.20;99.90;;;;;;5046654;28;20191;-43
2023/11/14 02:01:35;;;;;;;32.45;5.72;;;12.20;99.90;;;;;;5067968;28;20925;-43
2023/11/14 02:04:10;;;;;;;33.47;5.32;;;12.20;99.90;;;;;;5063160;28;20242;-39
2023/11/14 02:06:36;;;;;;;33.40;6.15;;;12.30;99.90;;;;;;5046197;28;20207;-44
2023/11/14 02:09:03;;;;;;;23.52;4.40;;;12.20;99.90;;;;;;5067159;28;20232;-47
2023/11/14 02:11:29;;;;;;;43.28;5.85;;;12.20;99.90;;;;;;5049227;28;20191;-43
2023/11/14 02:13:55;;;;;;;29.58;5.30;;;12.20;99.90;;;;;;5047603;28;20187;-48
2023/11/14 02:16:23;;;;;;;34.75;5.55;;;12.20;99.90;;;;;;5051779;28;20681;-46
2023/11/14 02:18:49;;;;;;;34.85;5.90;;;12.20;99.90;;;;;;5049940;28;20286;-48
2023/11/14 02:21:15;;;;;;;39.38;4.95;;;12.20;99.90;;;;;;5065814;28;20754;-41
2023/11/14 02:23:45;;;;;;;28.77;5.32;;;12.20;99.90;;;;;;5049708;28;20301;-43
2023/11/14 02:26:11;;;;;;;41.22;6.18;;;12.20;99.90;;;;;;5048032;28;20238;-41
2023/11/14 02:28:37;;;;;;;25.70;5.03;;;12.20;99.90;;;;;;5050987;28;20583;-47
2023/11/14 02:31:04;;;;;;;31.75;5.57;;;12.20;99.90;;;;;;5049802;28;20199;-42
2023/11/14 02:33:31;;;;;;;31.40;5.00;;;12.20;99.90;;;;;;5053337;28;20226;-42
2023/11/14 02:35:57;;;;;;;35.08;5.47;;;12.20;99.90;;;;;;5052066;28;20183;-45
2023/11/14 02:38:24;;;;;;;22.73;4.45;;;12.20;99.90;;;;;;5051921;28;20710;-44
2023/11/14 02:40:51;;;;;;;25.90;4.90;;;12.20;99.90;;;;;;5047849;28;20191;-41
2023/11/14 02:43:17;;;;;;;35.88;5.57;;;12.20;99.90;;;;;;5066033;28;20190;-43
2023/11/14 02:45:43;;;;;;;25.13;4.70;;;12.20;99.90;;;;;;5050501;28;20317;-48
2023/11/14 02:48:09;;;;;;;25.88;5.07;;;12.20;99.90;;;;;;5065386;28;20270;-44
2023/11/14 02:50:48;;;;;;;34.85;4.47;;;12.20;99.90;;;;;;5050690;28;20209;-43
2023/11/14 02:53:14;;;;;;;33.88;5.50;;;12.20;99.90;;;;;;5050420;28;20677;-47
2023/11/14 02:55:43;;;;;;;29.17;4.95;;;12.20;99.90;;;;;;5047867;28;20222;-44
2023/11/14 02:58:13;;;;;;;28.20;5.22;;;12.20;99.90;;;;;;5048689;28;20292;-42
2023/11/14 03:00:43;;;;;;;31.83;5.45;;;12.20;99.90;;;;;;5050661;28;20593;-44
2023/11/14 03:03:09;;;;;;;32.55;4.82;;;12.20;99.90;;;;;;5047701;28;20193;-47
2023/11/14 03:05:36;;;;;;;34.80;4.85;;;12.20;99.90;;;;;;5041176;28;20215;-44
2023/11/14 03:08:03;;;;;;;41.35;6.10;;;12.20;99.90;;;;;;5052998;28;20197;-43
2023/11/14 03:10:30;;;;;;;28.17;5.00;;;12.20;99.90;;;;;;5052486;28;20557;-43
2023/11/14 03:12:57;;;;;;;27.35;4.72;;;12.20;99.90;;;;;;5048589;28;20682;-44
2023/11/14 03:15:26;;;;;;;34.30;5.63;;;12.20;99.90;;;;;;5050811;28;20187;-39
2023/11/14 03:17:56;;;;;;;39.88;4.70;;;12.10;99.90;;;;;;5048859;28;20202;-49
2023/11/14 03:20:22;;;;;;;36.78;5.68;;;12.20;99.90;;;;;;5066327;28;20248;-50
2023/11/14 03:22:49;;;;;;;31.02;5.10;;;12.20;99.90;;;;;;5051663;28;20595;-43
2023/11/14 03:25:16;;;;;;;34.13;5.45;;;12.20;99.90;;;;;;5052191;28;20238;-46
2023/11/14 03:27:42;;;;;;;32.83;4.88;;;12.20;99.90;;;;;;5051280;28;20183;-47
2023/11/14 03:30:08;;;;;;;23.48;4.60;;;12.20;99.90;;;;;;5054221;28;20212;-41
2023/11/14 03:32:35;;;;;;;34.47;5.53;;;12.20;99.90;;;;;;5054604;28;20646;-45
2023/11/14 03:35:01;;;;;;;37.65;5.63;;;12.30;99.90;;;;;;5055468;28;20219;-44
2023/11/14 03:37:27;;;;;;;32.92;5.65;;;12.20;99.90;;;;;;5052823;28;20281;-40
2023/11/14 03:39:53;;;;;;;22.00;4.65;;;12.20;99.90;;;;;;5067012;28;20233;-50
2023/11/14 03:42:19;;;;;;;24.23;4.28;;;12.20;99.90;;;;;;5068224;28;20674;-47
2023/11/14 03:44:45;;;;;;;35.78;5.65;;;12.30;99.90;;;;;;5052182;28;20225;-43
2023/11/14 03:47:11;;;;;;;36.28;5.93;;;12.30;99.90;;;;;;5056975;28;20202;-45
2023/11/14 03:49:37;;;;;;;27.92;4.70;;;12.30;99.90;;;;;;5053694;28;20195;-49
2023/11/14 03:52:03;;;;;;;31.98;5.72;;;12.30;99.90;;;;;;5057224;28;20188;-44
2023/11/14 03:54:29;;;;;;;31.30;5.57;;;12.30;99.90;;;;;;5051107;28;20210;-45
2023/11/14 03:56:55;;;;;;;38.30;5.00;;;12.20;99.90;;;;;;5051844;28;20199;-44
2023/11/14 03:59:22;;;;;;;32.15;4.75;;;12.20;99.90;;;;;;5053934;28;20198;-43
2023/11/14 04:01:48;;;;;;;30.40;5.20;;;12.10;99.90;;;;;;5068267;28;20179;-45
2023/11/14 04:04:13;;;;;;;37.40;5.90;;;12.10;99.90;;;;;;5069236;28;20191;-44
2023/11/14 04:06:39;;;;;;;30.90;5.53;;;12.00;99.90;;;;;;5049187;28;20218;-44
2023/11/14 04:09:05;;;;;;;30.95;5.55;;;12.00;99.90;;;;;;5069485;28;20187;-43
2023/11/14 04:11:31;;;;;;;40.53;4.93;;;12.00;99.90;;;;;;5052604;28;20179;-41
2023/11/14 04:13:57;;;;;;;26.20;4.95;;;12.00;99.90;;;;;;5050396;28;20202;-43
2023/11/14 04:16:23;;;;;;;35.95;6.47;;;12.00;99.90;;;;;;5051559;28;20222;-48
2023/11/14 04:18:49;;;;;;;26.77;4.95;;;12.00;99.90;;;;;;5052340;28;20205;-45
2023/11/14 04:21:19;;;;;;;34.33;5.88;;;12.00;99.90;;;;;;5050634;28;20753;-44
2023/11/14 04:23:46;;;;;;;36.08;5.75;;;12.00;99.90;;;;;;5052661;28;20442;-45
2023/11/14 04:26:14;;;;;;;37.38;5.90;;;12.00;99.90;;;;;;5060466;28;20260;-44
2023/11/14 04:28:42;;;;;;;32.53;4.97;;;12.00;99.90;;;;;;5061859;28;20194;-44
2023/11/14 04:31:08;;;;;;;29.98;5.35;;;12.00;99.90;;;;;;5052322;28;20270;-44
2023/11/14 04:33:34;;;;;;;30.92;5.88;;;12.00;99.90;;;;;;5065118;28;20188;-47
2023/11/14 04:36:00;;;;;;;29.38;5.30;;;12.00;99.90;;;;;;5054117;28;20286;-41
2023/11/14 04:38:27;;;;;;;34.10;6.15;;;12.00;99.90;;;;;;5068928;28;20191;-44
2023/11/14 04:40:54;;;;;;;33.45;5.35;;;12.00;99.90;;;;;;5052003;28;20282;-42
2023/11/14 04:43:21;;;;;;;34.53;5.32;;;12.00;99.90;;;;;;5051760;28;20273;-46
2023/11/14 04:45:47;;;;;;;46.58;6.70;;;12.00;99.90;;;;;;5051362;28;20238;-47
2023/11/14 04:48:13;;;;;;;42.75;6.63;;;12.00;99.90;;;;;;5054255;28;20210;-43
2023/11/14 04:50:39;;;;;;;37.83;6.60;;;12.00;99.90;;;;;;5052147;28;20204;-44
2023/11/14 04:53:04;;;;;;;34.35;5.80;;;12.00;99.90;;;;;;5044175;28;20552;-42
2023/11/14 04:55:30;;;;;;;49.35;7.00;;;12.00;99.90;;;;;;5051149;28;20194;-45
2023/11/14 04:57:56;;;;;;;39.92;6.75;;;12.00;99.90;;;;;;5043508;28;20199;-49
2023/11/14 05:00:22;;;;;;;36.85;5.95;;;12.00;99.90;;;;;;5052613;28;20203;-46
2023/11/14 05:02:48;;;;;;;42.75;6.90;;;12.10;99.90;;;;;;5046985;28;20198;-44
2023/11/14 05:05:14;;;;;;;40.35;5.90;;;12.10;99.90;;;;;;5052408;28;20678;-43
2023/11/14 05:07:41;;;;;;;36.55;6.72;;;12.10;99.90;;;;;;5055177;28;20183;-45
2023/11/14 05:10:08;;;;;;;34.05;5.93;;;12.10;99.90;;;;;;5052511;28;20187;-42
2023/11/14 05:12:34;;;;;;;30.33;5.88;;;12.10;99.90;;;;;;5050578;28;20702;-44
2023/11/14 05:15:00;;;;;;;35.75;6.20;;;12.10;99.90;;;;;;5048728;28;20273;-50
2023/11/14 05:17:26;;;;;;;32.05;6.20;;;12.20;99.90;;;;;;5053228;28;20199;-48
2023/11/14 05:19:54;;;;;;;36.00;6.20;;;12.20;99.90;;;;;;5049040;28;20197;-46
2023/11/14 05:22:20;;;;;;;37.88;6.72;;;12.20;99.90;;;;;;5050591;28;20638;-42
2023/11/14 05:24:46;;;;;;;37.35;6.43;;;12.20;99.90;;;;;;5045728;28;20195;-49
2023/11/14 05:27:12;;;;;;;45.83;5.88;;;12.20;99.90;;;;;;5055093;28;20215;-47
2023/11/14 05:29:38;;;;;;;33.70;5.43;;;12.20;99.90;;;;;;5050497;28;20599;-44
2023/11/14 05:32:04;;;;;;;44.35;7.30;;;12.20;99.90;;;;;;5052349;28;20192;-45
2023/11/14 05:34:30;;;;;;;32.75;5.15;;;12.20;99.90;;;;;;5051636;28;20202;-47
2023/11/14 05:36:56;;;;;;;32.63;5.68;;;12.20;99.90;;;;;;5050610;28;20668;-43
2023/11/14 05:39:22;;;;;;;35.17;5.85;;;12.20;99.90;;;;;;5050425;28;20297;-46
2023/11/14 05:41:48;;;;;;;40.22;5.82;;;12.20;99.90;;;;;;5053196;28;20751;-46
2023/11/14 05:44:14;;;;;;;40.20;6.45;;;12.20;99.90;;;;;;5052109;28;20191;-44
2023/11/14 05:46:40;;;;;;;29.05;6.05;;;12.20;99.90;;;;;;5049204;28;20316;-42
2023/11/14 05:49:06;;;;;;;33.38;5.65;;;12.30;99.90;;;;;;5050125;28;20187;-45
2023/11/14 05:51:33;;;;;;;48.03;6.28;;;12.20;99.90;;;;;;5050770;28;20226;-43
2023/11/14 05:53:59;;;;;;;38.47;6.45;;;12.20;99.90;;;;;;5050667;28;20657;-46
2023/11/14 05:56:25;;;;;;;33.70;5.70;;;12.20;99.90;;;;;;5049111;28;20209;-48
2023/11/14 05:58:50;;;;;;;48.42;5.85;;;12.10;99.90;;;;;;5051260;28;20198;-47
2023/11/14 06:01:16;;;;;;;42.75;6.57;;;12.10;99.90;;;;;;5051481;28;21762;-44
2023/11/14 06:03:42;;;;;;;36.42;6.63;;;12.10;99.90;;;;;;5067048;28;20220;-42
2023/11/14 06:06:08;;;;;;;30.17;6.75;;;12.10;99.90;;;;;;5048620;28;20521;-46
2023/11/14 06:08:34;;;;;;;35.05;6.43;;;12.10;99.90;;;;;;5051145;28;20449;-44
2023/11/14 06:11:00;;;;;;;42.58;6.38;;;12.10;99.90;;;;;;5042690;28;20182;-42
2023/11/14 06:13:26;;;;;;;34.90;5.93;;;12.10;99.90;;;;;;5049255;28;20195;-42
2023/11/14 06:15:52;;;;;;;24.75;5.18;;;12.00;99.90;;;;;;5052612;28;20195;-46
2023/11/14 06:18:18;;;;;;;39.75;7.18;;;12.00;99.90;;;;;;5048829;28;20197;-48
2023/11/14 06:20:44;;;;;;;50.70;7.15;;;12.00;99.90;;;;;;5051161;28;20190;-44
2023/11/14 06:23:09;;;;;;;42.38;6.57;;;12.00;99.90;;;;;;5048192;28;20195;-44
2023/11/14 06:25:35;;;;;;;52.92;7.28;;;12.00;99.90;;;;;;5049872;28;20264;-47
2023/11/14 06:28:01;;;;;;;43.58;7.53;;;12.00;99.90;;;;;;5047559;28;20713;-41
2023/11/14 06:30:27;;;;;;;35.20;6.65;;;12.00;99.90;;;;;;5065300;28;20191;-43
2023/11/14 06:32:53;;;;;;;35.63;5.78;;;11.90;99.90;;;;;;5051687;28;20186;-46
2023/11/14 06:35:19;;;;;;;35.88;6.00;;;11.80;99.90;;;;;;5049074;28;20190;-44
2023/11/14 06:37:45;;;;;;;53.35;7.25;;;11.70;99.90;;;;;;5051696;28;20187;-44
2023/11/14 06:40:11;;;;;;;43.42;5.95;;;11.70;99.90;;;;;;5049003;28;20669;-40
2023/11/14 06:42:40;;;;;;;40.30;6.32;;;11.70;99.90;;;;;;5049190;28;20681;-44
2023/11/14 06:45:07;;;;;;;42.45;6.47;;;11.70;99.90;;;;;;5050498;28;20666;-43
2023/11/14 06:47:33;;;;;;;43.80;7.13;;;11.70;99.90;;;;;;5051781;28;20265;-42
2023/11/14 06:49:59;;;;;;;47.70;6.55;;;11.70;99.90;;;;;;5049215;28;20556;-48
2023/11/14 06:52:24;;;;;;;44.60;5.90;;;11.70;99.90;;;;;;5050520;28;20193;-45
2023/11/14 06:54:50;;;;;;;35.95;5.97;;;11.80;99.90;;;;;;5048521;28;20268;-48
2023/11/14 06:57:16;;;;;;;46.50;7.82;;;11.80;99.90;;;;;;5052414;28;20564;-43
2023/11/14 06:59:42;;;;;;;34.00;6.25;;;11.80;99.90;;;;;;5049019;28;20188;-41
2023/11/14 07:02:09;;;;;;;38.45;7.00;;;11.80;99.90;;;;;;5050686;28;20246;-49
2023/11/14 07:04:38;;;;;;;34.85;6.30;;;11.80;99.90;;;;;;5054330;28;20198;-44
2023/11/14 07:07:05;;;;;;;42.10;6.88;;;11.80;99.90;;;;;;5053029;28;20211;-46
2023/11/14 07:09:31;;;;;;;41.00;6.82;;;11.90;99.90;;;;;;5049603;28;20940;-46
2023/11/14 07:11:57;;;;;;;32.53;5.20;;;11.90;99.90;;;;;;5051257;28;20202;-47
2023/11/14 07:14:25;;;;;;;39.53;6.15;;;11.90;99.90;;;;;;5053645;28;20190;-46
2023/11/14 07:16:52;;;;;;;35.60;5.75;;;11.90;99.90;;;;;;5053098;28;20187;-44
2023/11/14 07:19:18;;;;;;;43.00;5.88;;;11.90;99.90;;;;;;5053913;28;20200;-46
2023/11/14 07:21:46;;;;;;;30.05;5.63;;;11.80;99.90;;;;;;5053809;28;20261;-41
2023/11/14 07:24:13;;;;;;;43.30;7.20;;;11.90;99.90;;;;;;5056198;28;20232;-42
2023/11/14 07:26:38;;;;;;;38.17;6.25;;;11.80;99.90;;;;;;5054218;28;20214;-45
2023/11/14 07:29:04;;;;;;;43.60;6.70;;;11.80;99.90;;;;;;5061453;28;20184;-45
2023/11/14 07:31:31;;;;;;;40.22;6.32;;;11.90;99.90;;;;;;5053330;28;20680;-47
2023/11/14 07:33:56;;;;;;;42.10;6.20;;;11.80;99.90;;;;;;5054794;28;20282;-44
2023/11/14 07:36:24;;;;;;;42.72;7.03;;;11.90;99.90;;;;;;5054953;28;20314;-45
2023/11/14 07:38:52;;;;;;;45.10;6.60;;;12.00;99.90;;;;;;5053575;28;20187;-42
2023/11/14 07:41:18;;;;;;;43.63;7.35;;;12.00;99.90;;;;;;5056428;28;20190;-41
2023/11/14 07:43:45;;;;;;;43.58;6.30;;;12.00;99.90;;;;;;5050145;28;20195;-47
2023/11/14 07:46:11;;;;;;;44.55;6.55;;;12.10;99.90;;;;;;5065045;28;20240;-45
2023/11/14 07:48:37;;;;;;;40.03;6.45;;;12.10;99.90;;;;;;5055259;28;20183;-46
2023/11/14 07:51:03;;;;;;;38.60;6.55;;;12.10;99.90;;;;;;5053659;28;20230;-45
2023/11/14 07:53:29;;;;;;;34.95;6.38;;;12.20;99.90;;;;;;5053966;28;20232;-49
2023/11/14 07:55:55;;;;;;;39.03;6.28;;;12.20;99.90;;;;;;5055737;28;20670;-46
2023/11/14 07:58:25;;;;;;;39.85;6.45;;;12.20;99.90;;;;;;5067665;28;20212;-39
2023/11/14 08:00:51;;;;;;;37.67;6.07;;;12.20;99.90;;;;;;5051589;28;20236;-45
2023/11/14 08:03:17;;;;;;;38.08;6.43;;;12.30;99.90;;;;;;5056241;28;20187;-43
2023/11/14 08:05:43;;;;;;;50.85;6.95;;;12.30;99.90;;;;;;5049715;28;20306;-44
2023/11/14 08:08:10;;;;;;;34.60;6.15;;;12.20;99.90;;;;;;5054721;28;20266;-52
2023/11/14 08:10:37;;;;;;;36.17;6.53;;;12.20;99.90;;;;;;5053353;28;20179;-40
2023/11/14 08:13:03;;;;;;;47.55;7.28;;;12.20;99.90;;;;;;5064442;28;20298;-42
2023/11/14 08:15:29;;;;;;;31.90;6.05;;;12.20;99.90;;;;;;5054154;28;20592;-50
2023/11/14 08:17:55;;;;;;;34.60;6.30;;;12.30;99.90;;;;;;5052380;28;20190;-48
2023/11/14 08:20:22;;;;;;;38.00;6.43;;;12.30;99.90;;;;;;5055818;28;20187;-43
2023/11/14 08:22:48;;;;;;;43.28;6.90;;;12.40;99.90;;;;;;5051988;28;20209;-45
2023/11/14 08:25:14;;;;;;;45.92;6.50;;;12.40;99.90;;;;;;5050541;28;20755;-45
2023/11/14 08:27:42;;;;;;;41.13;6.82;;;12.40;99.90;;;;;;5052001;28;20205;-43
2023/11/14 08:30:12;;;;;;;43.17;6.57;;;12.40;99.90;;;;;;5053124;28;20194;-47
2023/11/14 08:32:42;;;;;;;39.50;6.75;;;12.50;99.90;;;;;;5051419;28;20601;-46
2023/11/14 08:35:09;;;;;;;41.30;6.30;;;12.50;99.90;;;;;;5061331;28;20265;-43
2023/11/14 08:37:35;;;;;;;35.22;5.95;;;12.50;99.90;;;;;;5052324;28;20266;-44
2023/11/14 08:40:03;;;;;;;39.88;6.90;;;12.60;99.90;;;;;;5051689;28;20198;-43
2023/11/14 08:42:29;;;;;;;41.25;6.97;;;12.60;99.90;;;;;;5053018;28;20271;-42
2023/11/14 08:44:58;;;;;;;38.08;6.30;;;12.60;99.90;;;;;;5052996;28;20324;-44
2023/11/14 08:47:24;;;;;;;39.53;6.68;;;12.70;99.90;;;;;;5052343;28;20227;-43
2023/11/14 08:49:50;;;;;;;39.03;6.72;;;12.70;99.90;;;;;;5055902;28;20206;-50
2023/11/14 08:52:16;;;;;;;40.85;6.35;;;12.70;99.90;;;;;;5053675;28;20305;-51
2023/11/14 08:54:42;;;;;;;44.70;6.00;;;12.70;99.90;;;;;;5049376;28;20274;-43
2023/11/14 08:57:08;;;;;;;49.35;7.78;;;12.70;99.90;;;;;;5054143;28;20193;-47
2023/11/14 08:59:34;;;;;;;43.88;6.78;;;12.80;99.90;;;;;;5054973;28;20191;-44
2023/11/14 09:02:01;;;;;;;43.58;7.00;;;12.90;99.90;;;;;;5066685;28;20199;-44
2023/11/14 09:04:27;;;;;;;36.85;6.97;;;12.90;99.90;;;;;;5050618;28;20696;-45
2023/11/14 09:06:53;;;;;;;48.28;7.85;;;13.10;99.90;;;;;;5042789;28;20219;-45
2023/11/14 09:09:20;;;;;;;41.40;6.60;;;13.00;99.90;;;;;;5056015;28;20179;-47
2023/11/14 09:11:47;;;;;;;41.80;7.20;;;13.10;99.90;;;;;;5051222;28;20198;-44
2023/11/14 09:14:14;;;;;;;41.92;6.40;;;13.10;99.90;;;;;;5056903;28;20221;-46
2023/11/14 09:16:40;;;;;;;38.88;6.63;;;13.20;99.90;;;;;;5047560;28;20223;-45
2023/11/14 09:19:06;;;;;;;46.47;6.55;;;13.20;99.90;;;;;;5050197;28;20237;-46
2023/11/14 09:21:33;;;;;;;35.90;7.00;;;13.10;99.90;;;;;;5055274;28;20266;-46
2023/11/14 09:24:00;;;;;;;36.33;6.45;;;13.00;99.90;;;;;;5051770;28;20191;-41
2023/11/14 09:26:26;;;;;;;34.45;6.07;;;13.00;99.90;;;;;;5054034;28;20218;-41
2023/11/14 09:28:52;;;;;;;35.58;5.72;;;12.90;99.90;;;;;;5048234;28;20651;-48
2023/11/14 09:31:19;;;;;;;39.83;5.95;;;12.80;99.90;;;;;;5048976;28;20190;-44
2023/11/14 09:33:49;;;;;;;27.30;5.25;;;12.80;99.90;;;;;;5049456;28;20237;-45
2023/11/14 09:36:15;;;;;;;29.17;5.68;;;12.70;99.90;;;;;;5048791;28;20655;-47
2023/11/14 09:38:41;;;;;;;31.58;5.53;;;12.70;99.90;;;;;;5050632;28;20205;-48
2023/11/14 09:41:08;;;;;;;28.98;6.43;;;12.70;99.90;;;;;;5051622;28;20235;-49
2023/11/14 09:43:34;;;;;;;37.13;6.22;;;12.70;99.90;;;;;;5052533;28;20199;-45
2023/11/14 09:46:01;;;;;;;41.53;6.30;;;12.80;99.90;;;;;;5049143;28;20702;-45
2023/11/14 09:48:27;;;;;;;31.30;5.22;;;12.80;99.90;;;;;;5051360;28;20190;-41
2023/11/14 09:50:54;;;;;;;30.63;5.78;;;12.90;99.90;;;;;;5054200;28;20276;-41
2023/11/14 09:53:27;;;;;;;27.15;5.47;;;13.00;99.90;;;;;;5052076;28;20183;-41
2023/11/14 09:55:55;;;;;;;32.53;6.13;;;13.00;99.90;;;;;;5053146;28;20222;-49
2023/11/14 09:58:22;;;;;;;34.42;6.18;;;13.10;99.90;;;;;;5049020;28;20277;-46
2023/11/14 10:00:51;;;;;;;28.65;5.78;;;13.10;99.90;;;;;;5050638;28;20228;-40
2023/11/14 10:03:17;;;;;;;36.63;6.18;;;13.10;99.90;;;;;;5051197;28;20185;-45
2023/11/14 10:05:44;;;;;;;35.05;6.35;;;13.20;99.90;;;;;;5050302;28;20207;-46
2023/11/14 10:08:14;;;;;;;37.60;6.60;;;13.30;99.90;;;;;;5047291;28;20221;-44
2023/11/14 10:11:03;;;;;;;44.28;6.30;;;13.30;99.90;;;;;;5047062;28;20210;-46
2023/11/14 10:13:29;;;;;;;45.03;6.88;;;13.40;99.90;;;;;;5050135;28;20186;-48
2023/11/14 10:15:55;;;;;;;37.95;6.15;;;13.40;99.90;;;;;;5049170;28;20199;-46
2023/11/14 10:18:30;;;;;;;42.35;7.50;;;13.40;99.90;;;;;;5052099;28;20201;-48
2023/11/14 10:20:56;;;;;;;37.58;6.50;;;13.50;99.90;;;;;;5052164;28;20226;-45
2023/11/14 10:23:32;;;;;;;42.75;7.30;;;13.40;99.90;;;;;;5050557;28;20198;-41
2023/11/14 10:26:05;;;;;;;36.13;6.50;;;13.40;99.90;;;;;;5049433;28;20689;-43
2023/11/14 10:28:32;;;;;;;38.72;6.28;;;13.40;99.90;;;;;;5047700;28;20184;-41
2023/11/14 10:30:59;;;;;;;38.88;6.47;;;13.30;99.90;;;;;;5053136;28;20341;-46
2023/11/14 10:33:30;;;;;;;49.67;7.20;;;13.20;99.90;;;;;;5047806;28;20187;-41
2023/11/14 10:36:08;;;;;;;50.00;7.20;;;13.20;99.90;;;;;;5048280;28;20269;-45
2023/11/14 10:38:34;;;;;;;17.20;3.55;;;13.00;99.90;;;;;;5050434;28;20194;-46
2023/11/14 10:41:00;;;;;;;22.85;4.00;;;12.70;99.90;;;;;;5055420;28;20197;-40
2023/11/14 10:43:27;;;;;;;33.75;5.20;;;12.40;99.90;;;;;;5051553;28;20212;-47
2023/11/14 10:45:54;;;;;;;34.10;5.93;;;12.20;99.90;;;;;;5051555;28;20733;-45
2023/11/14 10:48:22;;;;;;;46.47;6.90;;;12.10;99.90;;;;;;5044921;28;20214;-45
2023/11/14 10:50:51;;;;;;;44.15;6.60;;;12.20;99.90;;;;;;5048985;28;20592;-42
2023/11/14 10:53:18;;;;;;;44.17;6.55;;;12.30;99.90;;;;;;5048279;28;20187;-40
2023/11/14 10:55:46;;;;;;;42.58;5.90;;;12.40;99.90;;;;;;5048113;28;20295;-39
2023/11/14 10:58:13;;;;;;;42.92;6.43;;;12.50;99.90;;;;;;5049523;28;20627;-40
2023/11/14 11:00:40;;;;;;;43.20;6.05;;;12.60;99.90;;;;;;5047685;28;20195;-42
2023/11/14 11:03:07;;;;;;;38.38;6.28;;;12.60;99.90;;;;;;5050115;28;20214;-44
2023/11/14 11:05:33;;;;;;;43.42;6.30;;;12.70;99.90;;;;;;5051045;28;20255;-44
2023/11/14 11:08:05;;;;;;;38.85;5.97;;;12.80;99.90;;;;;;5044392;28;20186;-40
2023/11/14 11:10:32;;;;;;;35.55;6.28;;;12.80;99.90;;;;;;5050309;28;20548;-42
2023/11/14 11:13:03;;;;;;;38.95;6.05;;;12.80;99.90;;;;;;5049948;28;20217;-43
2023/11/14 11:15:29;;;;;;;45.15;7.20;;;12.90;99.90;;;;;;5048311;28;20223;-42
2023/11/14 11:18:01;;;;;;;34.00;6.82;;;12.90;99.90;;;;;;5050245;28;20633;-42
2023/11/14 11:20:27;;;;;;;38.08;5.85;;;13.00;99.90;;;;;;5057633;28;20198;-44
2023/11/14 11:23:12;;;;;;;38.97;6.40;;;13.10;99.90;;;;;;5031351;28;20202;-40
2023/11/14 11:25:40;;;;;;;36.28;6.13;;;13.20;99.90;;;;;;5051918;28;20214;-45
2023/11/14 11:28:21;;;;;;;39.45;6.60;;;13.30;99.90;;;;;;5044786;28;20183;-44
2023/11/14 11:31:05;;;;;;;51.45;6.80;;;13.40;99.90;;;;;;5052357;28;20186;-46
2023/11/14 11:33:33;;;;;;;36.63;6.38;;;13.60;99.90;;;;;;5047865;28;20273;-49
2023/11/14 11:36:20;;;;;;;39.45;6.18;;;13.70;99.90;;;;;;5046970;28;20198;-42
2023/11/14 11:38:53;;;;;;;34.65;5.80;;;13.80;99.90;;;;;;5062092;28;20423;-44
2023/11/14 11:41:19;;;;;;;40.90;6.18;;;13.80;99.90;;;;;;5049854;28;20190;-42
2023/11/14 11:43:47;;;;;;;35.95;6.57;;;13.90;99.90;;;;;;5048248;28;20221;-41
2023/11/14 11:46:44;;;;;;;40.97;6.28;;;13.90;99.90;;;;;;5049404;28;20552;-43
2023/11/14 11:49:12;;;;;;;36.72;6.40;;;14.00;99.90;;;;;;5048187;28;20667;-42
2023/11/14 11:51:47;;;;;;;35.28;6.03;;;14.10;99.90;;;;;;5051109;28;20249;-41
2023/11/14 11:54:28;;;;;;;30.88;6.53;;;14.20;99.90;;;;;;5050894;28;20209;-45
2023/11/14 11:57:03;;;;;;;39.10;6.55;;;14.30;99.90;;;;;;5054554;28;20206;-42
2023/11/14 11:59:29;;;;;;;38.97;6.03;;;14.30;99.90;;;;;;5053025;28;20590;-45
2023/11/14 12:01:57;;;;;;;36.60;6.43;;;14.40;99.90;;;;;;5050304;28;20194;-50
2023/11/14 12:04:23;;;;;;;37.22;5.68;;;14.60;99.90;;;;;;5051826;28;20281;-42
2023/11/14 12:06:49;;;;;;;36.40;6.72;;;14.60;99.90;;;;;;5069055;28;20293;-45
2023/11/14 12:09:15;;;;;;;37.28;5.90;;;14.70;99.90;;;;;;5055440;28;20642;-44
2023/11/14 12:11:41;;;;;;;35.00;5.32;;;14.80;99.90;;;;;;5052293;28;20205;-47
2023/11/14 12:14:07;;;;;;;30.92;6.30;;;14.80;99.90;;;;;;5049560;28;20634;-42
2023/11/14 12:16:36;;;;;;;42.28;7.00;;;14.80;99.90;;;;;;5054183;28;20195;-41
2023/11/14 12:19:02;;;;;;;36.95;6.32;;;14.80;99.90;;;;;;5054136;28;20218;-44
2023/11/14 12:21:28;;;;;;;27.30;5.85;;;14.70;99.90;;;;;;5055115;28;20264;-43
2023/11/14 12:23:54;;;;;;;47.45;7.05;;;14.60;99.90;;;;;;5052239;28;20287;-41
2023/11/14 12:26:20;;;;;;;41.58;6.97;;;14.50;99.90;;;;;;5053501;28;20823;-42
2023/11/14 12:28:46;;;;;;;37.35;6.93;;;14.40;99.90;;;;;;5047897;28;20210;-43
2023/11/14 12:31:13;;;;;;;32.33;6.82;;;14.30;99.90;;;;;;5052803;28;20422;-47
2023/11/14 12:33:46;;;;;;;44.28;6.70;;;14.30;99.90;;;;;;5052236;28;20237;-43
2023/11/14 12:36:25;;;;;;;44.63;8.00;;;14.30;99.90;;;;;;5053438;28;20252;-43